sensor_id;sensor_type;location;lat;lon;timestamp;pressure;altitude;pressure_sealevel;temperature;humidity
5988;BME280;3021;51.000;6.980;2023-08-17T00:01:19;68604.47;;;20.62;100.00
5988;BME280;3021;51.000;6.980;2023-08-17T00:03:45;68607.38;;;20.64;100.00
5988;BME280;3021;51.000;6.980;2023-08-17T00:06:10;68607.38;;;20.64;100.00
5988;BME280;3021;51.000;6.980;2023-08-17T00:08:35;68601.44;;;20.57;100.00
5988;BME280;3021;51.000;6.980;2023-08-17T00:11:01;68612.06;;;20.68;100.00
5988;BME280;3021;51.000;6.980;2023-08-17T00:13:26;68607.25;;;20.62;100.00
5988;BME280;3021;51.000;6.980;2023-08-17T00:15:52;68603.19;;;20.58;100.00
5988;BME280;3021;51.000;6.980;2023-08-17T00:18:17;68603.75;;;20.59;100.00
5988;BME280;3021;51.000;6.980;2023-08-17T00:20:42;68585.84;;;20.45;100.00
5988;BME280;3021;51.000;6.980;2023-08-17T00:23:09;68589.78;;;20.46;100.00
5988;BME280;3021;51.000;6.980;2023-08-17T00:25:34;68590.94;;;20.47;100.00
5988;BME280;3021;51.000;6.980;2023-08-17T00:28:00;68586.88;;;20.44;100.00
5988;BME280;3021;51.000;6.980;2023-08-17T00:30:25;68589.06;;;20.43;100.00
5988;BME280;3021;51.000;6.980;2023-08-17T00:32:50;68577.69;;;20.38;100.00
5988;BME280;3021;51.000;6.980;2023-08-17T00:35:16;68580.34;;;20.35;100.00
5988;BME280;3021;51.000;6.980;2023-08-17T00:37:41;68577.44;;;20.33;100.00
5988;BME280;3021;51.000;6.980;2023-08-17T00:40:07;68575.34;;;20.36;100.00
5988;BME280;3021;51.000;6.980;2023-08-17T00:42:32;68575.34;;;20.36;100.00
5988;BME280;3021;51.000;6.980;2023-08-17T00:44:57;68574.06;;;20.32;100.00
5988;BME280;3021;51.000;6.980;2023-08-17T00:47:24;68578.03;;;20.33;100.00
5988;BME280;3021;51.000;6.980;2023-08-17T00:49:49;68557.75;;;20.18;100.00
5988;BME280;3021;51.000;6.980;2023-08-17T00:52:15;68550.19;;;20.11;100.00
5988;BME280;3021;51.000;6.980;2023-08-17T00:54:40;68538.53;;;20.01;100.00
5988;BME280;3021;51.000;6.980;2023-08-17T00:57:05;68529.22;;;19.93;100.00
5988;BME280;3021;51.000;6.980;2023-08-17T00:59:31;68525.72;;;19.90;100.00
5988;BME280;3021;51.000;6.980;2023-08-17T01:01:57;68515.25;;;19.80;100.00
5988;BME280;3021;51.000;6.980;2023-08-17T01:04:22;68512.34;;;19.78;100.00
5988;BME280;3021;51.000;6.980;2023-08-17T01:06:48;68511.03;;;19.74;100.00
5988;BME280;3021;51.000;6.980;2023-08-17T01:09:13;68506.38;;;19.70;100.00
5988;BME280;3021;51.000;6.980;2023-08-17T01:11:49;68503.00;;;19.69;100.00
5988;BME280;3021;51.000;6.980;2023-08-17T01:14:33;68500.66;;;19.67;100.00
5988;BME280;3021;51.000;6.980;2023-08-17T01:17:14;68514.50;;;19.77;100.00
5988;BME280;3021;51.000;6.980;2023-08-17T01:19:40;68505.31;;;19.72;100.00
5988;BME280;3021;51.000;6.980;2023-08-17T01:22:08;68511.03;;;19.74;100.00
5988;BME280;3021;51.000;6.980;2023-08-17T01:24:36;68508.38;;;19.77;100.00
5988;BME280;3021;51.000;6.980;2023-08-17T01:27:01;68518.75;;;19.83;100.00
5988;BME280;3021;51.000;6.980;2023-08-17T01:29:26;68516.28;;;19.79;100.00
5988;BME280;3021;51.000;6.980;2023-08-17T01:34:56;68521.53;;;19.83;100.00
5988;BME280;3021;51.000;6.980;2023-08-17T01:37:26;68525.03;;;19.87;100.00
5988;BME280;3021;51.000;6.980;2023-08-17T01:39:55;68532.00;;;19.93;100.00
5988;BME280;3021;51.000;6.980;2023-08-17T01:42:22;68529.09;;;19.90;100.00
5988;BME280;3021;51.000;6.980;2023-08-17T01:44:48;68524.56;;;19.89;100.00
5988;BME280;3021;51.000;6.980;2023-08-17T01:47:14;68531.44;;;19.92;100.00
5988;BME280;3021;51.000;6.980;2023-08-17T01:49:39;68526.31;;;19.90;100.00
5988;BME280;3021;51.000;6.980;2023-08-17T01:52:05;68525.88;;;19.92;100.00
5988;BME280;3021;51.000;6.980;2023-08-17T01:54:30;68527.00;;;19.93;100.00
5988;BME280;3021;51.000;6.980;2023-08-17T01:56:56;68530.41;;;19.94;100.00
5988;BME280;3021;51.000;6.980;2023-08-17T01:59:21;68536.81;;;19.99;100.00
5988;BME280;3021;51.000;6.980;2023-08-17T02:01:46;68530.97;;;19.94;100.00
5988;BME280;3021;51.000;6.980;2023-08-17T02:04:12;68526.91;;;19.91;100.00
5988;BME280;3021;51.000;6.980;2023-08-17T02:06:37;68528.66;;;19.92;100.00
5988;BME280;3021;51.000;6.980;2023-08-17T02:09:02;68530.41;;;19.94;100.00
5988;BME280;3021;51.000;6.980;2023-08-17T02:11:28;68536.09;;;19.96;100.00
5988;BME280;3021;51.000;6.980;2023-08-17T02:13:53;68530.41;;;19.94;100.00
5988;BME280;3021;51.000;6.980;2023-08-17T02:16:18;68531.56;;;19.95;100.00
5988;BME280;3021;51.000;6.980;2023-08-17T02:18:44;68530.97;;;19.94;100.00
5988;BME280;3021;51.000;6.980;2023-08-17T02:21:09;68526.44;;;19.93;100.00
5988;BME280;3021;51.000;6.980;2023-08-17T02:23:34;68536.09;;;19.96;100.00
5988;BME280;3021;51.000;6.980;2023-08-17T02:26:00;68532.84;;;19.98;100.00
5988;BME280;3021;51.000;6.980;2023-08-17T02:28:25;68531.09;;;19.97;100.00
5988;BME280;3021;51.000;6.980;2023-08-17T02:30:55;68538.41;;;19.98;100.00
5988;BME280;3021;51.000;6.980;2023-08-17T02:33:20;68530.53;;;19.96;100.00
5988;BME280;3021;51.000;6.980;2023-08-17T02:35:49;68535.06;;;19.98;100.00
5988;BME280;3021;51.000;6.980;2023-08-17T02:38:14;68532.84;;;19.98;100.00
5988;BME280;3021;51.000;6.980;2023-08-17T02:40:40;68540.72;;;20.00;100.00
5988;BME280;3021;51.000;6.980;2023-08-17T02:43:05;68539.13;;;20.01;100.00
5988;BME280;3021;51.000;6.980;2023-08-17T02:45:30;68532.13;;;19.95;100.00
5988;BME280;3021;51.000;6.980;2023-08-17T02:47:56;68534.47;;;19.97;100.00
5988;BME280;3021;51.000;6.980;2023-08-17T02:50:21;68540.72;;;20.00;100.00
5988;BME280;3021;51.000;6.980;2023-08-17T02:52:46;68534.94;;;19.95;100.00
5988;BME280;3021;51.000;6.980;2023-08-17T02:55:12;68535.06;;;19.98;100.00
5988;BME280;3021;51.000;6.980;2023-08-17T02:57:37;68540.72;;;20.00;100.00
5988;BME280;3021;51.000;6.980;2023-08-17T03:00:02;68541.47;;;20.03;100.00
5988;BME280;3021;51.000;6.980;2023-08-17T03:02:31;68544.34;;;20.06;100.00
5988;BME280;3021;51.000;6.980;2023-08-17T03:04:56;68541.47;;;20.03;100.00
5988;BME280;3021;51.000;6.980;2023-08-17T03:07:22;68546.00;;;20.05;100.00
5988;BME280;3021;51.000;6.980;2023-08-17T03:09:47;68548.44;;;20.10;100.00
5988;BME280;3021;51.000;6.980;2023-08-17T03:12:12;68546.13;;;20.08;100.00
5988;BME280;3021;51.000;6.980;2023-08-17T03:14:38;68545.66;;;20.10;100.00
5988;BME280;3021;51.000;6.980;2023-08-17T03:17:03;68550.19;;;20.11;100.00
5988;BME280;3021;51.000;6.980;2023-08-17T03:19:28;68553.53;;;20.12;100.00
5988;BME280;3021;51.000;6.980;2023-08-17T03:21:56;68555.88;;;20.14;100.00
5988;BME280;3021;51.000;6.980;2023-08-17T03:24:22;68553.69;;;20.14;100.00
5988;BME280;3021;51.000;6.980;2023-08-17T03:26:47;68557.75;;;20.18;100.00
5988;BME280;3021;51.000;6.980;2023-08-17T03:29:13;68560.69;;;20.20;100.00
5988;BME280;3021;51.000;6.980;2023-08-17T03:31:38;68555.56;;;20.18;100.00
5988;BME280;3021;51.000;6.980;2023-08-17T03:34:03;68551.94;;;20.13;100.00
5988;BME280;3021;51.000;6.980;2023-08-17T03:36:28;68551.34;;;20.12;100.00
5988;BME280;3021;51.000;6.980;2023-08-17T03:38:54;68548.56;;;20.12;100.00
5988;BME280;3021;51.000;6.980;2023-08-17T03:41:21;68549.72;;;20.13;100.00
5988;BME280;3021;51.000;6.980;2023-08-17T03:43:48;68547.28;;;20.09;100.00
5988;BME280;3021;51.000;6.980;2023-08-17T03:46:14;68551.78;;;20.10;100.00
5988;BME280;3021;51.000;6.980;2023-08-17T03:48:39;68551.94;;;20.13;100.00
5988;BME280;3021;51.000;6.980;2023-08-17T03:51:04;68551.94;;;20.13;100.00
5988;BME280;3021;51.000;6.980;2023-08-17T03:53:29;68546.13;;;20.08;100.00
5988;BME280;3021;51.000;6.980;2023-08-17T03:55:55;68548.44;;;20.10;100.00
5988;BME280;3021;51.000;6.980;2023-08-17T03:58:20;68551.34;;;20.12;100.00
5988;BME280;3021;51.000;6.980;2023-08-17T04:00:50;68549.00;;;20.10;100.00
5988;BME280;3021;51.000;6.980;2023-08-17T04:03:16;68546.22;;;20.10;100.00
5988;BME280;3021;51.000;6.980;2023-08-17T04:05:41;68543.78;;;20.06;100.00
5988;BME280;3021;51.000;6.980;2023-08-17T04:08:06;68537.94;;;20.00;100.00
5988;BME280;3021;51.000;6.980;2023-08-17T04:10:32;68537.38;;;20.00;100.00
5988;BME280;3021;51.000;6.980;2023-08-17T04:12:57;68535.06;;;19.98;100.00
5988;BME280;3021;51.000;6.980;2023-08-17T04:15:22;68531.09;;;19.97;100.00
5988;BME280;3021;51.000;6.980;2023-08-17T04:17:48;68529.22;;;19.93;100.00
5988;BME280;3021;51.000;6.980;2023-08-17T04:20:13;68529.22;;;19.93;100.00
5988;BME280;3021;51.000;6.980;2023-08-17T04:22:38;68525.72;;;19.90;100.00
5988;BME280;3021;51.000;6.980;2023-08-17T04:25:04;68523.41;;;19.88;100.00
5988;BME280;3021;51.000;6.980;2023-08-17T04:27:30;68525.03;;;19.87;100.00
5988;BME280;3021;51.000;6.980;2023-08-17T04:29:55;68522.69;;;19.84;100.00
5988;BME280;3021;51.000;6.980;2023-08-17T04:32:20;68517.00;;;19.82;100.00
5988;BME280;3021;51.000;6.980;2023-08-17T04:34:45;68521.06;;;19.85;100.00
5988;BME280;3021;51.000;6.980;2023-08-17T04:37:11;68516.41;;;19.81;100.00
5988;BME280;3021;51.000;6.980;2023-08-17T04:39:36;68518.75;;;19.83;100.00
5988;BME280;3021;51.000;6.980;2023-08-17T04:42:05;68519.78;;;19.82;100.00
5988;BME280;3021;51.000;6.980;2023-08-17T04:44:30;68511.31;;;19.79;100.00
5988;BME280;3021;51.000;6.980;2023-08-17T04:46:56;68514.81;;;19.82;100.00
5988;BME280;3021;51.000;6.980;2023-08-17T04:49:21;68521.66;;;19.86;100.00
5988;BME280;3021;51.000;6.980;2023-08-17T04:51:46;68518.75;;;19.83;100.00
5988;BME280;3021;51.000;6.980;2023-08-17T04:54:12;68523.41;;;19.88;100.00
5988;BME280;3021;51.000;6.980;2023-08-17T04:56:37;68515.38;;;19.83;100.00
5988;BME280;3021;51.000;6.980;2023-08-17T04:59:03;68518.88;;;19.86;100.00
5988;BME280;3021;51.000;6.980;2023-08-17T05:01:28;68518.88;;;19.86;100.00
5988;BME280;3021;51.000;6.980;2023-08-17T05:03:53;68522.81;;;19.87;100.00
5988;BME280;3021;51.000;6.980;2023-08-17T05:06:19;68521.66;;;19.86;100.00
5988;BME280;3021;51.000;6.980;2023-08-17T05:08:44;68521.06;;;19.85;100.00
5988;BME280;3021;51.000;6.980;2023-08-17T05:11:09;68521.22;;;19.88;100.00
5988;BME280;3021;51.000;6.980;2023-08-17T05:13:35;68528.66;;;19.92;100.00
5988;BME280;3021;51.000;6.980;2023-08-17T05:16:00;68522.38;;;19.89;100.00
5988;BME280;3021;51.000;6.980;2023-08-17T05:18:26;68528.50;;;19.90;100.00
5988;BME280;3021;51.000;6.980;2023-08-17T05:20:51;68521.66;;;19.86;100.00
5988;BME280;3021;51.000;6.980;2023-08-17T05:23:16;68525.16;;;19.89;100.00
5988;BME280;3021;51.000;6.980;2023-08-17T05:25:46;68539.59;;;19.99;100.00
5988;BME280;3021;51.000;6.980;2023-08-17T05:28:12;68535.06;;;19.98;100.00
5988;BME280;3021;51.000;6.980;2023-08-17T05:30:37;68538.41;;;19.98;100.00
5988;BME280;3021;51.000;6.980;2023-08-17T05:33:02;68532.84;;;19.98;100.00
5988;BME280;3021;51.000;6.980;2023-08-17T05:35:28;68538.06;;;20.03;100.00
5988;BME280;3021;51.000;6.980;2023-08-17T05:37:53;68545.53;;;20.07;100.00
5988;BME280;3021;51.000;6.980;2023-08-17T05:40:18;68542.16;;;20.07;100.00
5988;BME280;3021;51.000;6.980;2023-08-17T05:42:44;68553.69;;;20.14;100.00
5988;BME280;3021;51.000;6.980;2023-08-17T05:45:09;68556.47;;;20.14;100.00
5988;BME280;3021;51.000;6.980;2023-08-17T05:47:35;68551.50;;;20.15;100.00
5988;BME280;3021;51.000;6.980;2023-08-17T05:50:00;68554.28;;;20.15;100.00
5988;BME280;3021;51.000;6.980;2023-08-17T05:52:26;68563.47;;;20.20;100.00
5988;BME280;3021;51.000;6.980;2023-08-17T05:54:51;68567.53;;;20.24;100.00
5988;BME280;3021;51.000;6.980;2023-08-17T05:57:16;68561.69;;;20.19;100.00
5988;BME280;3021;51.000;6.980;2023-08-17T05:59:42;68555.41;;;20.16;100.00
5988;BME280;3021;51.000;6.980;2023-08-17T06:02:07;68554.38;;;20.17;100.00
5988;BME280;3021;51.000;6.980;2023-08-17T06:04:32;68558.91;;;20.19;100.00
5988;BME280;3021;51.000;6.980;2023-08-17T06:06:58;68556.72;;;20.19;100.00
5988;BME280;3021;51.000;6.980;2023-08-17T06:09:23;68565.91;;;20.25;100.00
5988;BME280;3021;51.000;6.980;2023-08-17T06:11:49;68574.19;;;20.35;100.00
5988;BME280;3021;51.000;6.980;2023-08-17T06:14:14;68587.31;;;20.42;100.00
5988;BME280;3021;51.000;6.980;2023-08-17T06:16:40;68586.41;;;20.46;100.00
5988;BME280;3021;51.000;6.980;2023-08-17T06:19:05;68592.69;;;20.49;100.00
5988;BME280;3021;51.000;6.980;2023-08-17T06:21:30;68605.50;;;20.60;100.00
5988;BME280;3021;51.000;6.980;2023-08-17T06:23:56;68612.50;;;20.66;100.00
5988;BME280;3021;51.000;6.980;2023-08-17T06:26:21;68621.41;;;20.77;100.00
5988;BME280;3021;51.000;6.980;2023-08-17T06:28:46;68635.25;;;20.86;100.00
5988;BME280;3021;51.000;6.980;2023-08-17T06:31:15;68650.38;;;21.00;100.00
5988;BME280;3021;51.000;6.980;2023-08-17T06:33:40;68652.59;;;20.99;100.00
5988;BME280;3021;51.000;6.980;2023-08-17T06:36:05;68659.00;;;21.05;100.00
5988;BME280;3021;51.000;6.980;2023-08-17T06:38:31;68671.38;;;21.18;100.00
5988;BME280;3021;51.000;6.980;2023-08-17T06:40:56;68679.53;;;21.26;100.00
5988;BME280;3021;51.000;6.980;2023-08-17T06:43:21;68670.31;;;21.20;100.00
5988;BME280;3021;51.000;6.980;2023-08-17T06:45:47;68677.78;;;21.24;100.00
5988;BME280;3021;51.000;6.980;2023-08-17T06:48:12;68683.63;;;21.29;100.00
5988;BME280;3021;51.000;6.980;2023-08-17T06:50:37;68689.44;;;21.34;100.00
5988;BME280;3021;51.000;6.980;2023-08-17T06:53:03;68692.94;;;21.37;100.00
5988;BME280;3021;51.000;6.980;2023-08-17T06:55:28;68702.72;;;21.44;100.00
5988;BME280;3021;51.000;6.980;2023-08-17T06:57:54;68707.66;;;21.53;100.00
5988;BME280;3021;51.000;6.980;2023-08-17T07:00:20;68723.72;;;21.62;100.00
5988;BME280;3021;51.000;6.980;2023-08-17T07:02:48;68729.69;;;21.70;100.00
5988;BME280;3021;51.000;6.980;2023-08-17T07:05:15;68753.59;;;21.91;100.00
5988;BME280;3021;51.000;6.980;2023-08-17T07:07:40;68765.94;;;22.04;100.00
5988;BME280;3021;51.000;6.980;2023-08-17T07:10:07;68766.53;;;22.05;100.00
5988;BME280;3021;51.000;6.980;2023-08-17T07:12:32;68783.44;;;22.20;100.00
5988;BME280;3021;51.000;6.980;2023-08-17T07:14:58;68801.84;;;22.31;100.00
5988;BME280;3021;51.000;6.980;2023-08-17T07:17:23;68813.66;;;22.44;100.00
5988;BME280;3021;51.000;6.980;2023-08-17T07:19:49;68842.84;;;22.70;100.00
5988;BME280;3021;51.000;6.980;2023-08-17T07:22:14;68865.47;;;22.87;100.00
5988;BME280;3021;51.000;6.980;2023-08-17T07:24:41;68891.88;;;23.13;100.00
5988;BME280;3021;51.000;6.980;2023-08-17T07:27:06;68900.16;;;23.23;100.00
5988;BME280;3021;51.000;6.980;2023-08-17T07:29:32;68900.63;;;23.21;100.00
5988;BME280;3021;51.000;6.980;2023-08-17T07:31:57;68902.38;;;23.22;100.00
5988;BME280;3021;51.000;6.980;2023-08-17T07:34:26;68879.59;;;23.02;100.00
5988;BME280;3021;51.000;6.980;2023-08-17T07:36:51;68863.25;;;22.88;100.00
5988;BME280;3021;51.000;6.980;2023-08-17T07:39:17;68854.50;;;22.80;100.00
5988;BME280;3021;51.000;6.980;2023-08-17T07:41:43;68861.50;;;22.86;100.00
5988;BME280;3021;51.000;6.980;2023-08-17T07:44:09;68872.72;;;22.99;100.00
5988;BME280;3021;51.000;6.980;2023-08-17T07:46:34;68891.41;;;23.15;100.00
5988;BME280;3021;51.000;6.980;2023-08-17T07:48:59;68896.66;;;23.20;100.00
5988;BME280;3021;51.000;6.980;2023-08-17T07:51:25;68895.03;;;23.21;100.00
5988;BME280;3021;51.000;6.980;2023-08-17T07:53:50;68902.94;;;23.23;100.00
5988;BME280;3021;51.000;6.980;2023-08-17T07:56:15;68904.84;;;23.27;100.00
5988;BME280;3021;51.000;6.980;2023-08-17T07:58:41;68911.81;;;23.33;100.00
5988;BME280;3021;51.000;6.980;2023-08-17T08:01:06;68911.25;;;23.33;100.00
5988;BME280;3021;51.000;6.980;2023-08-17T08:03:31;68914.03;;;23.33;100.00
5988;BME280;3021;51.000;6.980;2023-08-17T08:05:57;68914.63;;;23.33;100.00
5988;BME280;3021;51.000;6.980;2023-08-17T08:08:22;68920.47;;;23.38;100.00
5988;BME280;3021;51.000;6.980;2023-08-17T08:10:48;68909.94;;;23.29;100.00
5988;BME280;3021;51.000;6.980;2023-08-17T08:13:13;68886.75;;;23.11;100.00
5988;BME280;3021;51.000;6.980;2023-08-17T08:15:39;68882.63;;;23.07;100.00
5988;BME280;3021;51.000;6.980;2023-08-17T08:18:04;68887.16;;;23.09;100.00
5988;BME280;3021;51.000;6.980;2023-08-17T08:20:30;68881.94;;;23.04;100.00
5988;BME280;3021;51.000;6.980;2023-08-17T08:22:55;68887.16;;;23.09;100.00
5988;BME280;3021;51.000;6.980;2023-08-17T08:25:21;68897.84;;;23.21;100.00
5988;BME280;3021;51.000;6.980;2023-08-17T08:27:46;68911.25;;;23.33;100.00
5988;BME280;3021;51.000;6.980;2023-08-17T08:30:11;68912.75;;;23.29;100.00
5988;BME280;3021;51.000;6.980;2023-08-17T08:32:37;68899.59;;;23.22;100.00
5988;BME280;3021;51.000;6.980;2023-08-17T08:35:02;68893.75;;;23.17;100.00
5988;BME280;3021;51.000;6.980;2023-08-17T08:37:28;68892.56;;;23.16;100.00
5988;BME280;3021;51.000;6.980;2023-08-17T08:39:54;68898.88;;;23.19;100.00
5988;BME280;3021;51.000;6.980;2023-08-17T08:42:21;68899.69;;;23.25;100.00
5988;BME280;3021;51.000;6.980;2023-08-17T08:44:47;68900.72;;;23.23;100.00
5988;BME280;3021;51.000;6.980;2023-08-17T08:47:14;68898.97;;;23.22;100.00
5988;BME280;3021;51.000;6.980;2023-08-17T08:50:01;68904.25;;;23.26;100.00
5988;BME280;3021;51.000;6.980;2023-08-17T08:52:34;68923.25;;;23.38;100.00
5988;BME280;3021;51.000;6.980;2023-08-17T08:55:10;68920.59;;;23.41;100.00
5988;BME280;3021;51.000;6.980;2023-08-17T08:57:37;68923.50;;;23.43;100.00
5988;BME280;3021;51.000;6.980;2023-08-17T09:00:03;68933.88;;;23.50;100.00
5988;BME280;3021;51.000;6.980;2023-08-17T09:02:29;68940.44;;;23.58;100.00
5988;BME280;3021;51.000;6.980;2023-08-17T09:04:55;68965.44;;;23.78;100.00
5988;BME280;3021;51.000;6.980;2023-08-17T09:07:22;68998.25;;;24.09;100.00
5988;BME280;3021;51.000;6.980;2023-08-17T09:09:47;69023.38;;;24.31;100.00
5988;BME280;3021;51.000;6.980;2023-08-17T09:12:13;69051.41;;;24.56;100.00
5988;BME280;3021;51.000;6.980;2023-08-17T09:14:38;69082.97;;;24.84;100.00
5988;BME280;3021;51.000;6.980;2023-08-17T09:17:06;69088.22;;;24.89;100.00
5988;BME280;3021;51.000;6.980;2023-08-17T09:19:32;69081.09;;;24.80;100.00
5988;BME280;3021;51.000;6.980;2023-08-17T09:21:58;69074.09;;;24.74;100.00
5988;BME280;3021;51.000;6.980;2023-08-17T09:24:24;69088.22;;;24.89;100.00
5988;BME280;3021;51.000;6.980;2023-08-17T09:26:49;69122.00;;;25.16;100.00
5988;BME280;3021;51.000;6.980;2023-08-17T09:29:19;69123.88;;;25.20;100.00
5988;BME280;3021;51.000;6.980;2023-08-17T09:31:46;69120.25;;;25.14;100.00
5988;BME280;3021;51.000;6.980;2023-08-17T09:34:11;69126.09;;;25.19;100.00
5988;BME280;3021;51.000;6.980;2023-08-17T09:36:36;69123.28;;;25.19;100.00
5988;BME280;3021;51.000;6.980;2023-08-17T09:39:02;69129.03;;;25.22;100.00
5988;BME280;3021;51.000;6.980;2023-08-17T09:41:28;69129.72;;;25.25;100.00
5988;BME280;3021;51.000;6.980;2023-08-17T09:43:55;69130.31;;;25.26;100.00
5988;BME280;3021;51.000;6.980;2023-08-17T09:46:21;69134.75;;;25.25;100.00
5988;BME280;3021;51.000;6.980;2023-08-17T09:48:47;69138.63;;;25.35;100.00
5988;BME280;3021;51.000;6.980;2023-08-17T09:51:16;69159.56;;;25.51;100.00
5988;BME280;3021;51.000;6.980;2023-08-17T09:53:42;69158.28;;;25.48;100.00
5988;BME280;3021;51.000;6.980;2023-08-17T09:56:09;69150.06;;;25.41;100.00
5988;BME280;3021;51.000;6.980;2023-08-17T09:58:36;69144.25;;;25.35;100.00
5988;BME280;3021;51.000;6.980;2023-08-17T10:01:04;69122.13;;;25.18;100.00
5988;BME280;3021;51.000;6.980;2023-08-17T10:03:32;69104.59;;;25.03;100.00
5988;BME280;3021;51.000;6.980;2023-08-17T10:06:03;69099.91;;;24.99;100.00
5988;BME280;3021;51.000;6.980;2023-08-17T10:08:30;69099.78;;;24.96;100.00
5988;BME280;3021;51.000;6.980;2023-08-17T10:10:58;69104.59;;;25.03;100.00
5988;BME280;3021;51.000;6.980;2023-08-17T10:13:40;69136.16;;;25.31;100.00
5988;BME280;3021;51.000;6.980;2023-08-17T10:16:15;69207.25;;;25.88;100.00
5988;BME280;3021;51.000;6.980;2023-08-17T10:18:54;69247.16;;;26.26;100.00
5988;BME280;3021;51.000;6.980;2023-08-17T10:21:27;69234.41;;;26.17;100.00
5988;BME280;3021;51.000;6.980;2023-08-17T10:23:55;69210.53;;;25.99;100.00
5988;BME280;3021;51.000;6.980;2023-08-17T10:26:22;69188.78;;;25.77;100.00
5988;BME280;3021;51.000;6.980;2023-08-17T10:28:47;69152.53;;;25.45;100.00
5988;BME280;3021;51.000;6.980;2023-08-17T10:31:13;69131.25;;;25.22;100.00
5988;BME280;3021;51.000;6.980;2023-08-17T10:33:40;69110.91;;;25.06;100.00
5988;BME280;3021;51.000;6.980;2023-08-17T10:36:09;69084.72;;;24.86;100.00
5988;BME280;3021;51.000;6.980;2023-08-17T10:38:34;69064.75;;;24.65;100.00
5988;BME280;3021;51.000;6.980;2023-08-17T10:41:18;69042.63;;;24.48;100.00
5988;BME280;3021;51.000;6.980;2023-08-17T10:43:54;69031.53;;;24.39;100.00
5988;BME280;3021;51.000;6.980;2023-08-17T10:46:19;69029.66;;;24.35;100.00
5988;BME280;3021;51.000;6.980;2023-08-17T10:48:45;69034.91;;;24.39;100.00
5988;BME280;3021;51.000;6.980;2023-08-17T10:51:10;69044.97;;;24.50;100.00
5988;BME280;3021;51.000;6.980;2023-08-17T10:53:38;69060.06;;;24.61;100.00
5988;BME280;3021;51.000;6.980;2023-08-17T10:56:10;69061.25;;;24.62;100.00
5988;BME280;3021;51.000;6.980;2023-08-17T10:58:36;69042.63;;;24.48;100.00
5988;BME280;3021;51.000;6.980;2023-08-17T11:01:01;69033.88;;;24.41;100.00
5988;BME280;3021;51.000;6.980;2023-08-17T11:03:27;69030.25;;;24.35;100.00
5988;BME280;3021;51.000;6.980;2023-08-17T11:05:55;69036.78;;;24.43;100.00
5988;BME280;3021;51.000;6.980;2023-08-17T11:08:31;69072.94;;;24.73;100.00
5988;BME280;3021;51.000;6.980;2023-08-17T11:11:10;69103.88;;;25.00;100.00
5988;BME280;3021;51.000;6.980;2023-08-17T11:13:41;69130.78;;;25.24;100.00
5988;BME280;3021;51.000;6.980;2023-08-17T11:16:08;69155.34;;;25.45;100.00
5988;BME280;3021;51.000;6.980;2023-08-17T11:18:34;69162.47;;;25.54;100.00
5988;BME280;3021;51.000;6.980;2023-08-17T11:21:01;69188.09;;;25.74;100.00
5988;BME280;3021;51.000;6.980;2023-08-17T11:23:29;69209.81;;;25.96;100.00
5988;BME280;3021;51.000;6.980;2023-08-17T11:25:55;69254.28;;;26.35;100.00
5988;BME280;3021;51.000;6.980;2023-08-17T11:28:21;69323.34;;;26.96;100.00
5988;BME280;3021;51.000;6.980;2023-08-17T11:30:56;69360.78;;;27.29;100.00
5988;BME280;3021;51.000;6.980;2023-08-17T11:33:22;69409.41;;;27.71;100.00
5988;BME280;3021;51.000;6.980;2023-08-17T11:35:48;69442.69;;;27.98;100.00
5988;BME280;3021;51.000;6.980;2023-08-17T11:38:15;69552.13;;;28.92;100.00
5988;BME280;3021;51.000;6.980;2023-08-17T11:40:40;69672.66;;;30.05;100.00
5988;BME280;3021;51.000;6.980;2023-08-17T11:43:06;69681.91;;;30.11;100.00
5988;BME280;3021;51.000;6.980;2023-08-17T11:45:32;69670.78;;;30.01;100.00
5988;BME280;3021;51.000;6.980;2023-08-17T11:47:57;69657.28;;;29.89;100.00
5988;BME280;3021;51.000;6.980;2023-08-17T11:50:24;69650.38;;;29.86;100.00
5988;BME280;3021;51.000;6.980;2023-08-17T11:52:49;69658.38;;;29.88;100.00
5988;BME280;3021;51.000;6.980;2023-08-17T11:55:16;69669.03;;;29.99;100.00
5988;BME280;3021;51.000;6.980;2023-08-17T11:57:45;69687.91;;;30.19;100.00
5988;BME280;3021;51.000;6.980;2023-08-17T12:00:17;69693.75;;;30.24;100.00
5988;BME280;3021;51.000;6.980;2023-08-17T12:02:43;69729.47;;;30.53;100.00
5988;BME280;3021;51.000;6.980;2023-08-17T12:05:08;69727.69;;;30.51;100.00
5988;BME280;3021;51.000;6.980;2023-08-17T12:07:35;69730.53;;;30.51;100.00
5988;BME280;3021;51.000;6.980;2023-08-17T12:10:02;69676.66;;;30.06;100.00
5988;BME280;3021;51.000;6.980;2023-08-17T12:12:28;69650.84;;;29.84;100.00
5988;BME280;3021;51.000;6.980;2023-08-17T12:14:54;69629.13;;;29.64;100.00
5988;BME280;3021;51.000;6.980;2023-08-17T12:17:20;69612.63;;;29.47;100.00
5988;BME280;3021;51.000;6.980;2023-08-17T12:19:49;69587.53;;;29.28;100.00
5988;BME280;3021;51.000;6.980;2023-08-17T12:22:14;69565.94;;;29.11;100.00
5988;BME280;3021;51.000;6.980;2023-08-17T12:24:40;69547.09;;;28.92;100.00
5988;BME280;3021;51.000;6.980;2023-08-17T12:27:06;69550.59;;;28.95;100.00
5988;BME280;3021;51.000;6.980;2023-08-17T12:29:31;69581.06;;;29.22;100.00
5988;BME280;3021;51.000;6.980;2023-08-17T12:32:00;69620.34;;;29.57;100.00
5988;BME280;3021;51.000;6.980;2023-08-17T12:34:26;69658.47;;;29.90;100.00
5988;BME280;3021;51.000;6.980;2023-08-17T12:36:51;69634.41;;;29.69;100.00
5988;BME280;3021;51.000;6.980;2023-08-17T12:39:16;69616.81;;;29.54;100.00
5988;BME280;3021;51.000;6.980;2023-08-17T12:41:42;69589.28;;;29.29;100.00
5988;BME280;3021;51.000;6.980;2023-08-17T12:44:09;69551.75;;;28.96;100.00
5988;BME280;3021;51.000;6.980;2023-08-17T12:46:37;69518.94;;;28.68;100.00
5988;BME280;3021;51.000;6.980;2023-08-17T12:49:02;69483.78;;;28.37;100.00
5988;BME280;3021;51.000;6.980;2023-08-17T12:51:28;69455.66;;;28.12;100.00
5988;BME280;3021;51.000;6.980;2023-08-17T12:53:53;69437.50;;;27.96;100.00
5988;BME280;3021;51.000;6.980;2023-08-17T12:56:19;69431.06;;;27.90;100.00
5988;BME280;3021;51.000;6.980;2023-08-17T12:58:44;69412.91;;;27.74;100.00
5988;BME280;3021;51.000;6.980;2023-08-17T13:01:09;69416.41;;;27.77;100.00
5988;BME280;3021;51.000;6.980;2023-08-17T13:03:34;69420.53;;;27.81;100.00
5988;BME280;3021;51.000;6.980;2023-08-17T13:06:00;69437.50;;;27.96;100.00
5988;BME280;3021;51.000;6.980;2023-08-17T13:08:25;69461.53;;;28.17;100.00